• Join FlightAware (Why Join?)
  • Login
  • US Flag 
10:04PM EDT


 

Airport Tracker/Info


-or-


 

Live Flight TrackerFlight Track Log ✈ UAL3838 ✈ 27-Apr-2013 ✈ KEWR - KBUF

Flight Track Log - Related Links

Times and Time Zones

All times are in EDT time to prevent confusion due to time zone crossing. See the UAL3838 flight status page for this flight to view local times or setup timezone preferences in your user account.

Time Position Orientation Groundspeed Altitude Reporting Facility
EDT Latitude Longitude Course Direction KTS MPH feet Rate Location/Type
09:16PM 40.6500 -74.1833 327° Northwest 180 207 2,200  Level New York TRACON
09:17PM 40.6833 -74.2333 311° West 241 277 3,800 1,980 Climbing New York TRACON
09:18PM 40.9200 -74.3359 331° Northwest  Level FlightAware Approximate
09:18PM 40.7333 -74.2833 323° Northwest 254 292 6,000  Level New York TRACON
09:19PM 40.9987 -74.3948 331° Northwest  Level FlightAware Approximate
09:19PM 40.8000 -74.3333 330° Northwest 253 291 8,900  Level New York TRACON
09:20PM 41.0763 -74.4563 327° Northwest  Level FlightAware Approximate
09:20PM 40.8997 -74.3947 335° Northwest 283 326 11,000  Level New York Center
09:21PM 41.1518 -74.5224 327° Northwest  Level FlightAware Approximate
09:21PM 40.9897 -74.4464 337° Northwest 303 349 12,100  Level New York Center
09:22PM 41.0656 -74.4889 337° Northwest 325 374 13,600 1,500 Climbing New York Center
09:23PM 41.1556 -74.5408 337° Northwest 331 381 15,200 1,560 Climbing New York Center
09:24PM 41.2369 -74.5978 332° Northwest 331 381 16,700 1,380 Climbing New York Center
09:25PM 41.3006 -74.6953 311° West 331 381 18,000 1,020 Climbing New York Center
09:26PM 41.3597 -74.7956 308° West 339 390 18,800 900 Climbing New York Center
09:27PM 41.4147 -74.8844 310° West 345 397 19,900 1,140 Climbing New York Center
09:28PM 41.4778 -74.9908 308° West 350 403 21,100 1,020 Climbing New York Center
09:29PM 41.5486 -75.1061 309° West 367 422 22,000 420 Climbing New York Center
09:30PM 41.5958 -75.2369 296° West 379 436 22,000  Level New York Center
09:31PM 41.6383 -75.3756 292° West 392 451 22,000  Level New York Center
09:32PM 41.6764 -75.5228 289° West 408 470 22,000  Level New York Center
09:33PM 41.7183 -75.6647 292° West 413 475 22,000  Level New York Center
09:34PM 41.7583 -75.8039 291° West 413 475 22,000  Level New York Center
09:35PM 41.7983 -75.9431 291° West 413 475 22,000  Level New York Center
09:36PM 41.8375 -76.0883 290° West 413 475 22,000  Level New York Center
09:37PM 41.8769 -76.2306 290° West 413 475 22,000  Level New York Center
09:38PM 41.9161 -76.3733 290° West 413 475 22,000  Level New York Center
09:39PM 41.9550 -76.5186 290° West 413 475 22,000  Level New York Center
09:40PM 41.9939 -76.6589 290° West 413 475 22,000  Level New York Center
09:41PM 42.0311 -76.7878 291° West 413 475 22,000  Level New York Center
09:43PM 42.0922 -77.0181 290° West 411 473 22,000  Level Cleveland Center
09:44PM 42.1383 -77.1611 294° West 411 473 22,000  Level Cleveland Center
09:45PM 42.1861 -77.2986 295° West 411 473 22,000  Level Cleveland Center
09:46PM 42.2297 -77.4394 293° West 411 473 22,000 -660 Level Cleveland Center
09:47PM 42.2772 -77.5803 295° West 411 473 20,700 -1,380 Descending Cleveland Center
09:48PM 42.3225 -77.7186 294° West 411 473 19,300 -1,500 Descending Cleveland Center
09:49PM 42.3675 -77.8544 294° West 406 467 17,800 -1,440 Descending Cleveland Center
09:50PM 42.4081 -77.9875 292° West 406 467 16,500 -1,800 Descending Cleveland Center
09:51PM 42.4506 -78.1181 294° West 392 451 14,200 -2,160 Descending Cleveland Center
09:52PM 42.4864 -78.2322 293° West 382 440 12,200 -1,620 Descending Cleveland Center
09:53PM 42.5386 -78.3458 302° West 370 426 11,000 -900 Descending Cleveland Center
09:54PM 42.6189 -78.4078 330° Northwest 338 389 10,500 -1,020 Descending Cleveland Center
09:55PM 42.6925 -78.4419 341° North 309 356 9,000 -1,980 Descending Cleveland Center
09:56PM 42.7786 -78.4758 344° North 287 330 6,600 -2,100 Descending Cleveland Center
09:57PM 42.8481 -78.5103 340° North 282 325 4,900 -1,380 Descending Cleveland Center
09:58PM 42.9194 -78.5447 341° North 275 316 3,900 -1,020 Descending Cleveland Center
09:59PM 42.9783 -78.5742 340° North 260 299 2,900 -840 Descending Cleveland Center
10:00PM 43.0292 -78.6178 328° Northwest 231 266 2,300 -480 Descending Cleveland Center
10:00PM 43.0000 -78.6500 219° Southwest 171 197 2,100 -300 Descending Buffalo TRACON